sensor_id;sensor_type;location;lat;lon;timestamp;pressure;altitude;pressure_sealevel;temperature;humidity
12195;BME280;27023;42.680;23.132;2022-11-20T00:00:47;91474.72;;;16.16;100.00
12195;BME280;27023;42.680;23.132;2022-11-20T00:03:14;91488.31;;;16.21;100.00
12195;BME280;27023;42.680;23.132;2022-11-20T00:05:42;91482.66;;;16.19;100.00
12195;BME280;27023;42.680;23.132;2022-11-20T00:08:09;91487.47;;;16.32;100.00
12195;BME280;27023;42.680;23.132;2022-11-20T00:10:37;91469.66;;;16.29;100.00
12195;BME280;27023;42.680;23.132;2022-11-20T00:13:04;91441.53;;;16.28;100.00
12195;BME280;27023;42.680;23.132;2022-11-20T00:15:30;91460.25;;;16.17;100.00
12195;BME280;27023;42.680;23.132;2022-11-20T00:17:57;91450.09;;;16.08;100.00
12195;BME280;27023;42.680;23.132;2022-11-20T00:20:24;91456.75;;;16.27;100.00
12195;BME280;27023;42.680;23.132;2022-11-20T00:22:52;91453.94;;;16.04;100.00
12195;BME280;27023;42.680;23.132;2022-11-20T00:25:19;91447.38;;;16.15;100.00
12195;BME280;27023;42.680;23.132;2022-11-20T00:27:45;91458.88;;;16.02;100.00
12195;BME280;27023;42.680;23.132;2022-11-20T00:30:13;91454.28;;;16.06;100.00
12195;BME280;27023;42.680;23.132;2022-11-20T00:32:40;91461.09;;;16.10;100.00
12195;BME280;27023;42.680;23.132;2022-11-20T00:35:07;91469.97;;;15.93;100.00
12195;BME280;27023;42.680;23.132;2022-11-20T00:37:33;91464.09;;;15.71;100.00
12195;BME280;27023;42.680;23.132;2022-11-20T00:40:02;91475.66;;;15.95;100.00
12195;BME280;27023;42.680;23.132;2022-11-20T00:42:28;91462.00;;;15.93;100.00
12195;BME280;27023;42.680;23.132;2022-11-20T00:44:58;91477.88;;;16.00;100.00
12195;BME280;27023;42.680;23.132;2022-11-20T00:47:24;91469.97;;;15.93;100.00
12195;BME280;27023;42.680;23.132;2022-11-20T00:49:51;91484.06;;;15.90;100.00
12195;BME280;27023;42.680;23.132;2022-11-20T00:52:17;91484.06;;;15.90;100.00
12195;BME280;27023;42.680;23.132;2022-11-20T00:54:44;91482.78;;;16.05;100.00
12195;BME280;27023;42.680;23.132;2022-11-20T00:57:12;91472.09;;;16.12;100.00
12195;BME280;27023;42.680;23.132;2022-11-20T00:59:39;91477.56;;;15.95;100.00
12195;BME280;27023;42.680;23.132;2022-11-20T01:02:05;91463.44;;;16.01;100.00
12195;BME280;27023;42.680;23.132;2022-11-20T01:04:32;91472.56;;;16.00;100.00
12195;BME280;27023;42.680;23.132;2022-11-20T01:06:59;91474.16;;;15.94;100.00
12195;BME280;27023;42.680;23.132;2022-11-20T01:09:25;91468.41;;;15.99;100.00
12195;BME280;27023;42.680;23.132;2022-11-20T01:11:52;91449.81;;;15.99;100.00
12195;BME280;27023;42.680;23.132;2022-11-20T01:14:20;91450.16;;;16.01;100.00
12195;BME280;27023;42.680;23.132;2022-11-20T01:16:49;91437.16;;;16.10;100.00
12195;BME280;27023;42.680;23.132;2022-11-20T01:19:18;91440.25;;;16.05;100.00
12195;BME280;27023;42.680;23.132;2022-11-20T01:21:47;91446.69;;;16.08;100.00
12195;BME280;27023;42.680;23.132;2022-11-20T01:24:16;91447.44;;;16.08;100.00
12195;BME280;27023;42.680;23.132;2022-11-20T01:26:44;91430.13;;;15.93;100.00
12195;BME280;27023;42.680;23.132;2022-11-20T01:29:13;91431.91;;;16.03;100.00
12195;BME280;27023;42.680;23.132;2022-11-20T01:31:43;91423.16;;;16.06;100.00
12195;BME280;27023;42.680;23.132;2022-11-20T01:34:12;91415.53;;;16.08;100.00
12195;BME280;27023;42.680;23.132;2022-11-20T01:36:40;91404.16;;;16.08;100.00
12195;BME280;27023;42.680;23.132;2022-11-20T01:39:11;91409.41;;;16.15;100.00
12195;BME280;27023;42.680;23.132;2022-11-20T01:41:38;91402.53;;;16.17;100.00
12195;BME280;27023;42.680;23.132;2022-11-20T01:44:45;91410.22;;;16.08;100.00
12195;BME280;27023;42.680;23.132;2022-11-20T01:47:17;91418.31;;;15.98;100.00
12195;BME280;27023;42.680;23.132;2022-11-20T01:49:48;91425.16;;;15.95;100.00
12195;BME280;27023;42.680;23.132;2022-11-20T01:52:18;91432.63;;;16.07;100.00
12195;BME280;27023;42.680;23.132;2022-11-20T01:54:48;91431.53;;;16.05;100.00
12195;BME280;27023;42.680;23.132;2022-11-20T01:57:17;91433.31;;;16.15;100.00
12195;BME280;27023;42.680;23.132;2022-11-20T01:59:49;91426.84;;;16.16;100.00
12195;BME280;27023;42.680;23.132;2022-11-20T02:02:21;91439.50;;;16.05;100.00
12195;BME280;27023;42.680;23.132;2022-11-20T02:04:49;91438.16;;;16.24;100.00
12195;BME280;27023;42.680;23.132;2022-11-20T02:07:18;91429.00;;;16.28;100.00
12195;BME280;27023;42.680;23.132;2022-11-20T02:09:45;91436.66;;;16.23;100.00
12195;BME280;27023;42.680;23.132;2022-11-20T02:12:12;91426.25;;;16.01;100.00
12195;BME280;27023;42.680;23.132;2022-11-20T02:14:59;91429.84;;;16.21;100.00
12195;BME280;27023;42.680;23.132;2022-11-20T02:17:26;91432.84;;;16.24;100.00
12195;BME280;27023;42.680;23.132;2022-11-20T02:19:53;91439.00;;;16.17;100.00
12195;BME280;27023;42.680;23.132;2022-11-20T02:22:24;91442.00;;;16.19;100.00
12195;BME280;27023;42.680;23.132;2022-11-20T02:24:56;91457.19;;;16.22;100.00
12195;BME280;27023;42.680;23.132;2022-11-20T02:27:26;91453.25;;;16.34;100.00
12195;BME280;27023;42.680;23.132;2022-11-20T02:29:56;91449.88;;;16.30;100.00
12195;BME280;27023;42.680;23.132;2022-11-20T02:32:27;91433.72;;;16.13;100.00
12195;BME280;27023;42.680;23.132;2022-11-20T02:34:55;91459.84;;;16.22;100.00
12195;BME280;27023;42.680;23.132;2022-11-20T02:37:22;91455.91;;;16.34;100.00
12195;BME280;27023;42.680;23.132;2022-11-20T02:39:51;91476.97;;;16.17;100.00
12195;BME280;27023;42.680;23.132;2022-11-20T02:42:19;91481.47;;;16.24;100.00
12195;BME280;27023;42.680;23.132;2022-11-20T02:44:46;91489.84;;;16.23;100.00
12195;BME280;27023;42.680;23.132;2022-11-20T02:47:13;91491.06;;;16.14;100.00
12195;BME280;27023;42.680;23.132;2022-11-20T02:49:39;91482.59;;;16.27;100.00
12195;BME280;27023;42.680;23.132;2022-11-20T02:52:06;91488.38;;;16.14;100.00
12195;BME280;27023;42.680;23.132;2022-11-20T02:54:33;91488.03;;;16.12;100.00
12195;BME280;27023;42.680;23.132;2022-11-20T02:56:59;91486.16;;;16.09;100.00
12195;BME280;27023;42.680;23.132;2022-11-20T02:59:27;91493.78;;;16.07;100.00
12195;BME280;27023;42.680;23.132;2022-11-20T03:01:54;91496.00;;;16.12;100.00
12195;BME280;27023;42.680;23.132;2022-11-20T03:04:21;91505.63;;;15.99;100.00
12195;BME280;27023;42.680;23.132;2022-11-20T03:06:47;91498.00;;;16.01;100.00
12195;BME280;27023;42.680;23.132;2022-11-20T03:09:14;91503.72;;;16.00;100.00
12195;BME280;27023;42.680;23.132;2022-11-20T03:11:41;91519.22;;;16.08;100.00
12195;BME280;27023;42.680;23.132;2022-11-20T03:14:07;91513.53;;;16.06;100.00
12195;BME280;27023;42.680;23.132;2022-11-20T03:16:35;91511.97;;;16.12;100.00
12195;BME280;27023;42.680;23.132;2022-11-20T03:19:02;91497.53;;;16.10;100.00
12195;BME280;27023;42.680;23.132;2022-11-20T03:21:29;91479.31;;;16.12;100.00
12195;BME280;27023;42.680;23.132;2022-11-20T03:23:56;91498.66;;;16.12;100.00
12195;BME280;27023;42.680;23.132;2022-11-20T03:26:24;91490.78;;;16.02;100.00
12195;BME280;27023;42.680;23.132;2022-11-20T03:28:53;91508.25;;;16.03;100.00
12195;BME280;27023;42.680;23.132;2022-11-20T03:31:22;91509.03;;;16.00;100.00
12195;BME280;27023;42.680;23.132;2022-11-20T03:33:50;91509.94;;;15.79;100.00
12195;BME280;27023;42.680;23.132;2022-11-20T03:36:18;91495.56;;;15.73;100.00
12195;BME280;27023;42.680;23.132;2022-11-20T03:38:46;91474.75;;;15.68;100.00
12195;BME280;27023;42.680;23.132;2022-11-20T03:41:15;91488.03;;;15.68;100.00
12195;BME280;27023;42.680;23.132;2022-11-20T03:43:42;91469.44;;;15.68;100.00
12195;BME280;27023;42.680;23.132;2022-11-20T03:46:08;91483.44;;;15.72;100.00
12195;BME280;27023;42.680;23.132;2022-11-20T03:48:35;91471.75;;;15.62;100.00
12195;BME280;27023;42.680;23.132;2022-11-20T03:51:11;91479.31;;;15.56;100.00
12195;BME280;27023;42.680;23.132;2022-11-20T03:53:39;91496.78;;;15.57;100.00
12195;BME280;27023;42.680;23.132;2022-11-20T03:56:06;91495.25;;;15.60;100.00
12195;BME280;27023;42.680;23.132;2022-11-20T03:58:34;91492.59;;;15.56;100.00
12195;BME280;27023;42.680;23.132;2022-11-20T04:01:06;91489.16;;;15.67;100.00
12195;BME280;27023;42.680;23.132;2022-11-20T04:03:33;91473.59;;;15.69;100.00
12195;BME280;27023;42.680;23.132;2022-11-20T04:06:04;91471.72;;;15.66;100.00
12195;BME280;27023;42.680;23.132;2022-11-20T04:08:33;91468.38;;;15.47;100.00
12195;BME280;27023;42.680;23.132;2022-11-20T04:11:10;91460.72;;;15.56;100.00
12195;BME280;27023;42.680;23.132;2022-11-20T04:13:38;91469.50;;;15.50;100.00
12195;BME280;27023;42.680;23.132;2022-11-20T04:16:05;91458.84;;;15.61;100.00
12195;BME280;27023;42.680;23.132;2022-11-20T04:18:32;91448.59;;;15.63;100.00
12195;BME280;27023;42.680;23.132;2022-11-20T04:20:59;91456.94;;;15.57;100.00
12195;BME280;27023;42.680;23.132;2022-11-20T04:23:26;91456.56;;;15.59;100.00
12195;BME280;27023;42.680;23.132;2022-11-20T04:25:54;91452.03;;;15.52;100.00
12195;BME280;27023;42.680;23.132;2022-11-20T04:28:21;91469.16;;;15.44;100.00
12195;BME280;27023;42.680;23.132;2022-11-20T04:30:48;91469.94;;;15.41;100.00
12195;BME280;27023;42.680;23.132;2022-11-20T04:33:14;91475.22;;;15.45;100.00
12195;BME280;27023;42.680;23.132;2022-11-20T04:35:41;91484.63;;;15.60;100.00
12195;BME280;27023;42.680;23.132;2022-11-20T04:38:08;91483.19;;;15.45;100.00
12195;BME280;27023;42.680;23.132;2022-11-20T04:40:34;91480.84;;;15.61;100.00
12195;BME280;27023;42.680;23.132;2022-11-20T04:43:02;91475.91;;;15.56;100.00
12195;BME280;27023;42.680;23.132;2022-11-20T04:45:29;91475.13;;;15.66;100.00
12195;BME280;27023;42.680;23.132;2022-11-20T04:47:56;91474.56;;;15.30;100.00
12195;BME280;27023;42.680;23.132;2022-11-20T04:50:22;91478.25;;;15.47;100.00
12195;BME280;27023;42.680;23.132;2022-11-20T04:52:49;91487.28;;;15.56;100.00
12195;BME280;27023;42.680;23.132;2022-11-20T04:55:16;91477.41;;;15.57;100.00
12195;BME280;27023;42.680;23.132;2022-11-20T04:57:42;91478.59;;;15.52;100.00
12195;BME280;27023;42.680;23.132;2022-11-20T05:00:12;91474.78;;;15.53;100.00
12195;BME280;27023;42.680;23.132;2022-11-20T05:02:39;91463.91;;;15.37;100.00
12195;BME280;27023;42.680;23.132;2022-11-20T05:05:06;91475.91;;;15.56;100.00
12195;BME280;27023;42.680;23.132;2022-11-20T05:07:32;91453.69;;;15.32;100.00
12195;BME280;27023;42.680;23.132;2022-11-20T05:09:59;91450.41;;;15.14;100.00
12195;BME280;27023;42.680;23.132;2022-11-20T05:12:26;91462.19;;;15.09;100.00
12195;BME280;27023;42.680;23.132;2022-11-20T05:14:54;91465.69;;;14.92;100.00
12195;BME280;27023;42.680;23.132;2022-11-20T05:17:22;91479.19;;;15.19;100.00
12195;BME280;27023;42.680;23.132;2022-11-20T05:19:48;91482.31;;;15.03;100.00
12195;BME280;27023;42.680;23.132;2022-11-20T05:22:15;91476.31;;;14.88;100.00
12195;BME280;27023;42.680;23.132;2022-11-20T05:24:41;91494.50;;;14.90;100.00
12195;BME280;27023;42.680;23.132;2022-11-20T05:27:08;91466.47;;;14.78;100.00
12195;BME280;27023;42.680;23.132;2022-11-20T05:29:35;91475.97;;;14.72;100.00
12195;BME280;27023;42.680;23.132;2022-11-20T05:32:02;91478.28;;;14.67;100.00
12195;BME280;27023;42.680;23.132;2022-11-20T05:34:30;91475.19;;;14.79;100.00
12195;BME280;27023;42.680;23.132;2022-11-20T05:36:56;91480.19;;;14.62;100.00
12195;BME280;27023;42.680;23.132;2022-11-20T05:39:23;91473.69;;;14.74;100.00
12195;BME280;27023;42.680;23.132;2022-11-20T05:41:50;91478.63;;;14.72;100.00
12195;BME280;27023;42.680;23.132;2022-11-20T05:44:36;91474.03;;;14.83;100.00
12195;BME280;27023;42.680;23.132;2022-11-20T05:47:03;91466.09;;;14.80;100.00
12195;BME280;27023;42.680;23.132;2022-11-20T05:49:31;91466.09;;;14.87;100.00
12195;BME280;27023;42.680;23.132;2022-11-20T05:51:58;91474.75;;;14.94;100.00
12195;BME280;27023;42.680;23.132;2022-11-20T05:54:25;91483.06;;;15.00;100.00
12195;BME280;27023;42.680;23.132;2022-11-20T05:56:52;91492.97;;;14.92;100.00
12195;BME280;27023;42.680;23.132;2022-11-20T05:59:19;91495.97;;;15.02;100.00
12195;BME280;27023;42.680;23.132;2022-11-20T06:01:46;91499.75;;;15.01;100.00
12195;BME280;27023;42.680;23.132;2022-11-20T06:04:12;91489.78;;;15.22;100.00
12195;BME280;27023;42.680;23.132;2022-11-20T06:06:40;91501.16;;;15.23;100.00
12195;BME280;27023;42.680;23.132;2022-11-20T06:09:07;91492.75;;;15.35;100.00
12195;BME280;27023;42.680;23.132;2022-11-20T06:11:34;91499.59;;;15.33;100.00
12195;BME280;27023;42.680;23.132;2022-11-20T06:14:01;91503.63;;;15.51;100.00
12195;BME280;27023;42.680;23.132;2022-11-20T06:16:27;91510.06;;;15.61;100.00
12195;BME280;27023;42.680;23.132;2022-11-20T06:18:54;91516.91;;;15.51;100.00
12195;BME280;27023;42.680;23.132;2022-11-20T06:21:21;91503.63;;;15.51;100.00
12195;BME280;27023;42.680;23.132;2022-11-20T06:23:51;91527.50;;;15.66;100.00
12195;BME280;27023;42.680;23.132;2022-11-20T06:26:20;91515.72;;;15.67;100.00
12195;BME280;27023;42.680;23.132;2022-11-20T06:28:47;91513.13;;;15.49;100.00
12195;BME280;27023;42.680;23.132;2022-11-20T06:31:15;91509.31;;;15.53;100.00
12195;BME280;27023;42.680;23.132;2022-11-20T06:33:43;91506.28;;;15.58;100.00
12195;BME280;27023;42.680;23.132;2022-11-20T06:36:11;91511.88;;;15.75;100.00
12195;BME280;27023;42.680;23.132;2022-11-20T06:38:39;91515.56;;;15.88;100.00
12195;BME280;27023;42.680;23.132;2022-11-20T06:41:10;91528.69;;;16.09;100.00
12195;BME280;27023;42.680;23.132;2022-11-20T06:43:37;91532.84;;;16.14;100.00
12195;BME280;27023;42.680;23.132;2022-11-20T06:46:04;91523.66;;;16.22;100.00
12195;BME280;27023;42.680;23.132;2022-11-20T06:48:31;91534.91;;;15.92;100.00
12195;BME280;27023;42.680;23.132;2022-11-20T06:50:58;91536.34;;;16.00;100.00
12195;BME280;27023;42.680;23.132;2022-11-20T06:53:25;91525.13;;;15.78;100.00
12195;BME280;27023;42.680;23.132;2022-11-20T06:55:52;91521.56;;;15.99;100.00
12195;BME280;27023;42.680;23.132;2022-11-20T06:58:23;91524.94;;;16.03;100.00
12195;BME280;27023;42.680;23.132;2022-11-20T07:00:52;91551.56;;;15.96;100.00
12195;BME280;27023;42.680;23.132;2022-11-20T07:03:19;91528.19;;;15.77;100.00
12195;BME280;27023;42.680;23.132;2022-11-20T07:05:46;91538.91;;;15.55;100.00
12195;BME280;27023;42.680;23.132;2022-11-20T07:08:12;91531.94;;;15.83;100.00
12195;BME280;27023;42.680;23.132;2022-11-20T07:10:39;91532.94;;;15.34;100.00
12195;BME280;27023;42.680;23.132;2022-11-20T07:13:06;91526.09;;;15.40;100.00
12195;BME280;27023;42.680;23.132;2022-11-20T07:15:34;91532.16;;;15.40;100.00
12195;BME280;27023;42.680;23.132;2022-11-20T07:18:01;91524.25;;;15.30;100.00
12195;BME280;27023;42.680;23.132;2022-11-20T07:20:28;91537.53;;;15.26;100.00
12195;BME280;27023;42.680;23.132;2022-11-20T07:22:55;91530.81;;;15.07;100.00
12195;BME280;27023;42.680;23.132;2022-11-20T07:25:22;91529.28;;;15.10;100.00
12195;BME280;27023;42.680;23.132;2022-11-20T07:27:49;91535.31;;;15.14;100.00
12195;BME280;27023;42.680;23.132;2022-11-20T07:30:16;91541.81;;;15.02;100.00
12195;BME280;27023;42.680;23.132;2022-11-20T07:32:46;91534.59;;;15.10;100.00
12195;BME280;27023;42.680;23.132;2022-11-20T07:35:13;91526.94;;;15.26;100.00
12195;BME280;27023;42.680;23.132;2022-11-20T07:37:39;91512.59;;;15.09;100.00
12195;BME280;27023;42.680;23.132;2022-11-20T07:40:07;91524.38;;;15.01;100.00
12195;BME280;27023;42.680;23.132;2022-11-20T07:42:33;91511.50;;;15.00;100.00
12195;BME280;27023;42.680;23.132;2022-11-20T07:45:00;91504.28;;;15.04;100.00
12195;BME280;27023;42.680;23.132;2022-11-20T07:47:27;91502.00;;;15.06;100.00
12195;BME280;27023;42.680;23.132;2022-11-20T07:49:55;91513.38;;;15.06;100.00
12195;BME280;27023;42.680;23.132;2022-11-20T07:52:21;91505.34;;;15.20;100.00
12195;BME280;27023;42.680;23.132;2022-11-20T07:54:48;91519.38;;;15.17;100.00
12195;BME280;27023;42.680;23.132;2022-11-20T07:57:15;91524.31;;;15.19;100.00
12195;BME280;27023;42.680;23.132;2022-11-20T07:59:42;91536.06;;;15.18;100.00
12195;BME280;27023;42.680;23.132;2022-11-20T08:02:10;91537.56;;;15.19;100.00
12195;BME280;27023;42.680;23.132;2022-11-20T08:04:37;91523.84;;;15.35;100.00
12195;BME280;27023;42.680;23.132;2022-11-20T08:07:05;91540.94;;;15.30;100.00
12195;BME280;27023;42.680;23.132;2022-11-20T08:09:32;91532.91;;;15.41;100.00
12195;BME280;27023;42.680;23.132;2022-11-20T08:11:59;91529.03;;;15.52;100.00
12195;BME280;27023;42.680;23.132;2022-11-20T08:14:51;91527.66;;;15.30;100.00
12195;BME280;27023;42.680;23.132;2022-11-20T08:17:18;91533.59;;;15.59;100.00
12195;BME280;27023;42.680;23.132;2022-11-20T08:19:44;91527.59;;;15.44;100.00
12195;BME280;27023;42.680;23.132;2022-11-20T08:22:12;91538.97;;;15.45;100.00
12195;BME280;27023;42.680;23.132;2022-11-20T08:24:39;91531.81;;;15.31;100.00
12195;BME280;27023;42.680;23.132;2022-11-20T08:27:06;91552.75;;;15.15;100.00
12195;BME280;27023;42.680;23.132;2022-11-20T08:29:32;91541.41;;;15.11;100.00
12195;BME280;27023;42.680;23.132;2022-11-20T08:31:59;91555.47;;;15.01;100.00
12195;BME280;27023;42.680;23.132;2022-11-20T08:34:26;91553.22;;;14.85;100.00
12195;BME280;27023;42.680;23.132;2022-11-20T08:36:52;91554.38;;;14.87;100.00
12195;BME280;27023;42.680;23.132;2022-11-20T08:39:20;91571.09;;;14.63;100.00
12195;BME280;27023;42.680;23.132;2022-11-20T08:41:47;91553.66;;;14.73;100.00
12195;BME280;27023;42.680;23.132;2022-11-20T08:44:14;91570.75;;;14.54;100.00
12195;BME280;27023;42.680;23.132;2022-11-20T08:46:41;91563.53;;;14.58;100.00
12195;BME280;27023;42.680;23.132;2022-11-20T08:49:10;91586.63;;;14.68;100.00
12195;BME280;27023;42.680;23.132;2022-11-20T08:51:38;91571.50;;;14.51;100.00
12195;BME280;27023;42.680;23.132;2022-11-20T08:54:05;91585.91;;;14.46;100.00
12195;BME280;27023;42.680;23.132;2022-11-20T08:56:33;91585.47;;;14.73;100.00
12195;BME280;27023;42.680;23.132;2022-11-20T08:59:00;91585.84;;;14.78;100.00
12195;BME280;27023;42.680;23.132;2022-11-20T09:01:28;91599.50;;;14.73;100.00
12195;BME280;27023;42.680;23.132;2022-11-20T09:03:55;91593.78;;;14.85;100.00
12195;BME280;27023;42.680;23.132;2022-11-20T09:06:22;91593.09;;;14.60;100.00
12195;BME280;27023;42.680;23.132;2022-11-20T09:08:51;91585.13;;;14.53;100.00
12195;BME280;27023;42.680;23.132;2022-11-20T09:11:18;91586.28;;;14.45;100.00
12195;BME280;27023;42.680;23.132;2022-11-20T09:13:46;91598.38;;;14.31;100.00
12195;BME280;27023;42.680;23.132;2022-11-20T09:16:13;91587.78;;;14.53;100.00
12195;BME280;27023;42.680;23.132;2022-11-20T09:18:39;91600.66;;;14.69;100.00
12195;BME280;27023;42.680;23.132;2022-11-20T09:21:09;91585.50;;;14.55;100.00
12195;BME280;27023;42.680;23.132;2022-11-20T09:23:37;91593.09;;;14.53;100.00
12195;BME280;27023;42.680;23.132;2022-11-20T09:26:05;91596.88;;;14.55;100.00
12195;BME280;27023;42.680;23.132;2022-11-20T09:28:32;91580.94;;;14.62;100.00
12195;BME280;27023;42.680;23.132;2022-11-20T09:31:04;91566.91;;;14.73;100.00
12195;BME280;27023;42.680;23.132;2022-11-20T09:33:31;91569.84;;;15.07;100.00
12195;BME280;27023;42.680;23.132;2022-11-20T09:35:58;91559.59;;;15.16;100.00
12195;BME280;27023;42.680;23.132;2022-11-20T09:38:24;91545.91;;;15.24;100.00
12195;BME280;27023;42.680;23.132;2022-11-20T09:40:56;91550.88;;;15.12;100.00
12195;BME280;27023;42.680;23.132;2022-11-20T09:43:30;91558.94;;;14.76;100.00
12195;BME280;27023;42.680;23.132;2022-11-20T09:46:05;91547.25;;;14.52;100.00
12195;BME280;27023;42.680;23.132;2022-11-20T09:48:55;91536.19;;;14.82;100.00
12195;BME280;27023;42.680;23.132;2022-11-20T09:51:36;91529.38;;;14.81;100.00
12195;BME280;27023;42.680;23.132;2022-11-20T09:54:17;91527.94;;;14.59;100.00
12195;BME280;27023;42.680;23.132;2022-11-20T09:56:46;91529.03;;;14.65;100.00
12195;BME280;27023;42.680;23.132;2022-11-20T09:59:27;91514.25;;;14.71;100.00
12195;BME280;27023;42.680;23.132;2022-11-20T10:01:58;91516.56;;;14.55;100.00
12195;BME280;27023;42.680;23.132;2022-11-20T10:04:25;91522.59;;;14.66;100.00
12195;BME280;27023;42.680;23.132;2022-11-20T10:06:56;91513.47;;;14.78;100.00
12195;BME280;27023;42.680;23.132;2022-11-20T10:09:29;91515.75;;;14.76;100.00
12195;BME280;27023;42.680;23.132;2022-11-20T10:12:06;91510.09;;;14.70;100.00
12195;BME280;27023;42.680;23.132;2022-11-20T10:14:48;91515.38;;;14.74;100.00
12195;BME280;27023;42.680;23.132;2022-11-20T10:17:29;91511.56;;;14.82;100.00
12195;BME280;27023;42.680;23.132;2022-11-20T10:20:16;91511.22;;;14.69;100.00
12195;BME280;27023;42.680;23.132;2022-11-20T10:25:39;91530.81;;;15.04;100.00
12195;BME280;27023;42.680;23.132;2022-11-20T10:28:23;91539.91;;;15.10;100.00
12195;BME280;27023;42.680;23.132;2022-11-20T10:30:59;91541.75;;;15.16;100.00
12195;BME280;27023;42.680;23.132;2022-11-20T10:33:31;91523.94;;;15.13;100.00
12195;BME280;27023;42.680;23.132;2022-11-20T10:36:06;91516.47;;;14.90;100.00
12195;BME280;27023;42.680;23.132;2022-11-20T10:38:37;91516.03;;;15.03;100.00
12195;BME280;27023;42.680;23.132;2022-11-20T10:41:06;91522.16;;;14.89;100.00
12195;BME280;27023;42.680;23.132;2022-11-20T10:43:56;91524.88;;;14.68;100.00
12195;BME280;27023;42.680;23.132;2022-11-20T10:46:34;91537.81;;;13.91;100.00
12195;BME280;27023;42.680;23.132;2022-11-20T10:49:12;91557.44;;;13.51;100.00
12195;BME280;27023;42.680;23.132;2022-11-20T10:51:48;91547.22;;;13.46;100.00
12195;BME280;27023;42.680;23.132;2022-11-20T10:54:23;91509.66;;;13.12;100.00
12195;BME280;27023;42.680;23.132;2022-11-20T10:56:57;91502.44;;;12.94;100.00
12195;BME280;27023;42.680;23.132;2022-11-20T10:59:41;91509.94;;;12.71;100.00
12195;BME280;27023;42.680;23.132;2022-11-20T11:02:17;91518.69;;;12.96;100.00
12195;BME280;27023;42.680;23.132;2022-11-20T11:04:47;91513.41;;;12.93;100.00
12195;BME280;27023;42.680;23.132;2022-11-20T11:07:17;91516.66;;;12.61;100.00
12195;BME280;27023;42.680;23.132;2022-11-20T11:09:47;91504.44;;;12.35;100.00
12195;BME280;27023;42.680;23.132;2022-11-20T11:12:15;91502.22;;;12.45;100.00
12195;BME280;27023;42.680;23.132;2022-11-20T11:14:44;91498.03;;;12.36;100.00
12195;BME280;27023;42.680;23.132;2022-11-20T11:17:23;91509.31;;;12.26;100.00
12195;BME280;27023;42.680;23.132;2022-11-20T11:20:01;91508.53;;;12.22;100.00
12195;BME280;27023;42.680;23.132;2022-11-20T11:22:29;91507.06;;;12.32;100.00
12195;BME280;27023;42.680;23.132;2022-11-20T11:24:57;91510.16;;;12.45;100.00
12195;BME280;27023;42.680;23.132;2022-11-20T11:27:23;91510.41;;;12.18;100.00
12195;BME280;27023;42.680;23.132;2022-11-20T11:30:02;91526.97;;;12.15;100.00
12195;BME280;27023;42.680;23.132;2022-11-20T11:32:29;91541.63;;;12.02;100.00
12195;BME280;27023;42.680;23.132;2022-11-20T11:35:01;91539.78;;;12.13;100.00
12195;BME280;27023;42.680;23.132;2022-11-20T11:37:33;91537.66;;;11.82;100.00
12195;BME280;27023;42.680;23.132;2022-11-20T11:40:01;91541.63;;;12.02;100.00
12195;BME280;27023;42.680;23.132;2022-11-20T11:42:28;91528.84;;;12.11;100.00
12195;BME280;27023;42.680;23.132;2022-11-20T11:44:57;91534.09;;;12.07;100.00
12195;BME280;27023;42.680;23.132;2022-11-20T11:47:36;91535.03;;;12.36;100.00
12195;BME280;27023;42.680;23.132;2022-11-20T11:50:16;91529.66;;;12.22;100.00
12195;BME280;27023;42.680;23.132;2022-11-20T11:52:46;91544.88;;;12.39;100.00
12195;BME280;27023;42.680;23.132;2022-11-20T11:55:18;91535.66;;;12.16;100.00
12195;BME280;27023;42.680;23.132;2022-11-20T11:57:52;91547.84;;;12.34;100.00
12195;BME280;27023;42.680;23.132;2022-11-20T12:00:21;91542.56;;;12.34;100.00
12195;BME280;27023;42.680;23.132;2022-11-20T12:02:56;91545.34;;;12.59;100.00
12195;BME280;27023;42.680;23.132;2022-11-20T12:05:28;91545.28;;;12.45;100.00
12195;BME280;27023;42.680;23.132;2022-11-20T12:07:59;91536.97;;;12.43;100.00
12195;BME280;27023;42.680;23.132;2022-11-20T12:10:39;91551.16;;;12.17;100.00
12195;BME280;27023;42.680;23.132;2022-11-20T12:13:17;91538.13;;;12.53;100.00
12195;BME280;27023;42.680;23.132;2022-11-20T12:15:47;91542.56;;;12.34;100.00
12195;BME280;27023;42.680;23.132;2022-11-20T12:18:16;91547.91;;;12.41;100.00
12195;BME280;27023;42.680;23.132;2022-11-20T12:20:51;91545.63;;;12.40;100.00
12195;BME280;27023;42.680;23.132;2022-11-20T12:23:27;91546.41;;;12.44;100.00
12195;BME280;27023;42.680;23.132;2022-11-20T12:25:57;91541.88;;;12.48;100.00
12195;BME280;27023;42.680;23.132;2022-11-20T12:28:48;91524.19;;;12.56;100.00
12195;BME280;27023;42.680;23.132;2022-11-20T12:31:31;91512.09;;;12.55;100.00
12195;BME280;27023;42.680;23.132;2022-11-20T12:34:14;91510.59;;;12.61;100.00
12195;BME280;27023;42.680;23.132;2022-11-20T12:36:52;91491.03;;;12.72;100.00
12195;BME280;27023;42.680;23.132;2022-11-20T12:39:34;91505.75;;;12.66;100.00
12195;BME280;27023;42.680;23.132;2022-11-20T12:42:10;91509.56;;;12.72;100.00
12195;BME280;27023;42.680;23.132;2022-11-20T12:45:21;91512.66;;;12.92;100.00
12195;BME280;27023;42.680;23.132;2022-11-20T12:48:23;91494.16;;;13.03;100.00
12195;BME280;27023;42.680;23.132;2022-11-20T12:51:18;91502.09;;;12.99;100.00
12195;BME280;27023;42.680;23.132;2022-11-20T12:54:03;91489.94;;;12.77;100.00
12195;BME280;27023;42.680;23.132;2022-11-20T12:56:39;91483.19;;;12.97;100.00